createdAt,value
2018-02-21T00:00:55.844Z,36.43
2018-02-21T00:03:24.168Z,36.83
2018-02-21T00:05:51.705Z,36.87
2018-02-21T00:08:19.231Z,37.80
2018-02-21T00:10:47.541Z,38.10
2018-02-21T00:13:15.070Z,40.60
2018-02-21T00:15:42.589Z,39.40
2018-02-21T00:18:10.133Z,37.20
2018-02-21T00:20:37.675Z,36.87
2018-02-21T00:23:05.215Z,38.10
2018-02-21T00:25:32.765Z,39.13
2018-02-21T00:28:01.082Z,39.60
2018-02-21T00:30:28.616Z,38.50
2018-02-21T00:32:56.142Z,38.93
2018-02-21T00:35:24.419Z,37.17
2018-02-21T00:37:52.763Z,39.07
2018-02-21T00:40:20.286Z,36.43
2018-02-21T00:42:47.837Z,39.00
2018-02-21T00:45:15.443Z,38.27
2018-02-21T00:47:43.759Z,38.83
2018-02-21T00:50:11.335Z,36.93
2018-02-21T00:52:38.862Z,34.60
2018-02-21T00:55:07.163Z,37.97
2018-02-21T00:57:34.695Z,37.90
2018-02-21T01:00:02.246Z,37.10
2018-02-21T01:02:30.607Z,36.60
2018-02-21T01:04:58.130Z,36.57
2018-02-21T01:07:25.656Z,37.63
2018-02-21T01:09:53.202Z,35.83
2018-02-21T01:12:21.533Z,35.47
2018-02-21T01:14:49.081Z,37.00
2018-02-21T01:17:17.276Z,37.73
2018-02-21T01:19:46.033Z,36.97
2018-02-21T01:22:13.553Z,37.03
2018-02-21T01:24:41.862Z,38.93
2018-02-21T01:27:09.383Z,38.60
2018-02-21T01:29:37.691Z,36.37
2018-02-21T01:32:05.219Z,36.03
2018-02-21T01:34:33.519Z,36.80
2018-02-21T01:37:01.080Z,36.80
2018-02-21T01:39:28.645Z,37.10
2018-02-21T01:41:56.159Z,37.70
2018-02-21T01:44:24.454Z,37.80
2018-02-21T01:46:51.977Z,36.10
2018-02-21T01:49:19.512Z,38.13
2018-02-21T01:51:47.771Z,36.23
2018-02-21T01:54:16.043Z,36.77
2018-02-21T01:56:43.603Z,36.93
2018-02-21T01:59:11.222Z,36.43
2018-02-21T02:01:39.518Z,36.40
2018-02-21T02:04:07.046Z,36.97
2018-02-21T02:06:35.353Z,36.77
2018-02-21T02:09:02.944Z,35.70
2018-02-21T02:11:30.497Z,37.77
2018-02-21T02:13:58.019Z,38.63
2018-02-21T02:16:25.544Z,35.83
2018-02-21T02:18:53.066Z,38.30
2018-02-21T02:21:20.590Z,39.90
2018-02-21T02:23:48.142Z,40.47
2018-02-21T02:26:16.821Z,38.97
2018-02-21T02:28:44.360Z,39.30
2018-02-21T02:31:12.670Z,39.80
2018-02-21T02:33:40.231Z,38.77
2018-02-21T02:36:07.764Z,41.03
2018-02-21T02:38:40.212Z,40.10
2018-02-21T02:41:08.518Z,39.83
2018-02-21T02:43:36.092Z,40.43
2018-02-21T02:46:03.611Z,43.83
2018-02-21T02:48:31.954Z,40.23
2018-02-21T02:50:59.468Z,40.77
2018-02-21T02:53:26.999Z,41.30
2018-02-21T02:55:55.323Z,42.67
2018-02-21T02:58:22.856Z,44.07
2018-02-21T03:00:50.418Z,43.27
2018-02-21T03:03:17.984Z,44.33
2018-02-21T03:05:45.970Z,43.23
2018-02-21T03:08:14.394Z,45.77
2018-02-21T03:10:42.706Z,46.23
2018-02-21T03:13:10.286Z,44.97
2018-02-21T03:15:37.833Z,45.73
2018-02-21T03:18:05.379Z,45.07
2018-02-21T03:20:32.945Z,45.90
2018-02-21T03:23:00.558Z,43.93
2018-02-21T03:25:28.902Z,45.50
2018-02-21T03:27:57.275Z,45.07
2018-02-21T03:30:24.805Z,45.47
2018-02-21T03:32:52.337Z,42.57
2018-02-21T03:35:21.148Z,43.03
2018-02-21T03:37:48.775Z,40.97
2018-02-21T03:40:16.750Z,40.50
2018-02-21T03:42:45.079Z,40.13
2018-02-21T03:45:14.448Z,39.20
2018-02-21T03:47:41.996Z,40.43
2018-02-21T03:50:10.344Z,41.57
2018-02-21T03:52:37.862Z,40.40
2018-02-21T03:55:05.446Z,39.37
2018-02-21T03:57:32.978Z,37.77
2018-02-21T04:00:00.522Z,39.20
2018-02-21T04:02:28.083Z,36.47
2018-02-21T04:04:55.598Z,38.13
2018-02-21T04:07:23.116Z,38.60
2018-02-21T04:09:50.689Z,38.73
2018-02-21T04:12:18.610Z,36.93
2018-02-21T04:14:47.443Z,40.67
2018-02-21T04:17:16.799Z,37.23
2018-02-21T04:19:44.362Z,39.93
2018-02-21T04:22:11.909Z,38.23
2018-02-21T04:24:39.434Z,38.53
2018-02-21T04:27:06.982Z,37.93
2018-02-21T04:29:34.590Z,38.83
2018-02-21T04:32:02.137Z,36.93
2018-02-21T04:34:30.469Z,37.60
2018-02-21T04:36:58.036Z,37.17
2018-02-21T04:39:25.619Z,37.73
2018-02-21T04:41:53.928Z,38.20
2018-02-21T04:44:21.474Z,35.80
2018-02-21T04:46:49.001Z,36.93
2018-02-21T04:49:18.725Z,35.03
2018-02-21T04:51:47.323Z,35.97
2018-02-21T04:54:27.356Z,35.03
2018-02-21T04:57:00.664Z,37.00
2018-02-21T05:02:30.401Z,34.33
2018-02-21T05:04:57.946Z,34.10
2018-02-21T05:07:25.472Z,33.07
2018-02-21T05:09:53.773Z,34.63
2018-02-21T05:12:21.330Z,31.57
2018-02-21T05:14:48.895Z,32.57
2018-02-21T05:17:16.859Z,30.57
2018-02-21T05:19:44.394Z,34.27
2018-02-21T05:22:12.691Z,33.13
2018-02-21T05:24:40.211Z,33.77
2018-02-21T05:27:07.723Z,34.90
2018-02-21T05:29:35.262Z,33.17
2018-02-21T05:32:02.805Z,32.83
2018-02-21T05:34:30.325Z,34.73
2018-02-21T05:36:57.860Z,35.53
2018-02-21T05:39:25.376Z,34.30
2018-02-21T05:41:52.901Z,33.20
2018-02-21T05:44:20.419Z,34.30
2018-02-21T05:46:47.966Z,31.90
2018-02-21T05:49:15.918Z,34.50
2018-02-21T05:51:44.207Z,34.10
2018-02-21T05:54:11.743Z,32.80
2018-02-21T05:56:40.063Z,34.57
2018-02-21T05:59:07.637Z,34.17
2018-02-21T06:01:35.170Z,37.50
2018-02-21T06:04:02.762Z,35.10
2018-02-21T06:06:30.322Z,33.50
2018-02-21T06:08:57.834Z,33.93
2018-02-21T06:11:25.378Z,34.63
2018-02-21T06:13:53.710Z,33.53
2018-02-21T06:16:21.267Z,36.40
2018-02-21T06:18:48.802Z,36.90
2018-02-21T06:21:16.729Z,37.73
2018-02-21T06:23:44.305Z,39.47
2018-02-21T06:26:11.848Z,39.23
2018-02-21T06:28:39.427Z,38.00
2018-02-21T06:31:07.027Z,36.77
2018-02-21T06:33:34.554Z,37.87
2018-02-21T06:36:02.098Z,37.23
2018-02-21T06:38:29.699Z,37.70
2018-02-21T06:40:57.209Z,37.43
2018-02-21T06:43:24.772Z,37.97
2018-02-21T06:45:52.308Z,37.20
2018-02-21T06:48:21.410Z,37.83
2018-02-21T06:50:48.950Z,38.77
2018-02-21T06:53:16.928Z,39.17
2018-02-21T06:55:45.955Z,39.97
2018-02-21T06:58:13.506Z,39.57
2018-02-21T07:00:41.013Z,40.40
2018-02-21T07:03:08.601Z,39.00
2018-02-21T07:05:36.150Z,42.07
2018-02-21T07:08:04.483Z,42.33
2018-02-21T07:10:32.014Z,41.83
2018-02-21T07:12:59.548Z,41.13
2018-02-21T07:15:27.088Z,43.67
2018-02-21T07:17:54.602Z,43.33
2018-02-21T07:20:22.129Z,43.50
2018-02-21T07:22:49.637Z,43.60
2018-02-21T07:25:18.165Z,42.93
2018-02-21T07:27:46.377Z,42.93
2018-02-21T07:30:13.890Z,41.57
2018-02-21T07:32:41.414Z,40.73
2018-02-21T07:35:09.722Z,40.20
2018-02-21T07:37:37.265Z,40.50
2018-02-21T07:40:05.567Z,42.17
2018-02-21T07:42:33.079Z,40.40
2018-02-21T07:45:01.393Z,39.50
2018-02-21T07:47:28.940Z,42.20
2018-02-21T07:49:57.294Z,40.67
2018-02-21T07:52:24.815Z,40.87
2018-02-21T07:54:52.347Z,39.83
2018-02-21T07:57:19.892Z,41.00
2018-02-21T07:59:47.419Z,38.97
2018-02-21T08:02:14.922Z,40.40
2018-02-21T08:04:42.474Z,41.33
2018-02-21T08:07:09.998Z,37.80
2018-02-21T08:09:38.284Z,40.23
2018-02-21T08:12:06.566Z,40.60
2018-02-21T08:14:34.137Z,40.20
2018-02-21T08:17:01.684Z,41.63
2018-02-21T08:19:29.222Z,38.93
2018-02-21T08:21:57.514Z,40.00
2018-02-21T08:24:25.793Z,40.93
2018-02-21T08:26:54.082Z,41.77
2018-02-21T08:29:21.623Z,42.60
2018-02-21T08:31:49.906Z,42.00
2018-02-21T08:34:18.608Z,40.67
2018-02-21T08:36:47.383Z,41.73
2018-02-21T08:39:14.933Z,42.73
2018-02-21T08:41:43.236Z,41.57
2018-02-21T08:44:10.757Z,41.33
2018-02-21T08:46:39.033Z,43.57
2018-02-21T08:49:06.590Z,41.17
2018-02-21T08:51:34.866Z,39.93
2018-02-21T08:54:03.326Z,40.50
2018-02-21T08:56:31.646Z,41.20
2018-02-21T08:58:59.201Z,42.00
2018-02-21T09:01:26.782Z,42.17
2018-02-21T09:03:54.325Z,42.87
2018-02-21T09:06:21.959Z,41.57
2018-02-21T09:08:50.232Z,42.90
2018-02-21T09:11:17.774Z,42.97
2018-02-21T09:13:46.922Z,43.63
2018-02-21T09:16:14.673Z,43.47
2018-02-21T09:18:42.345Z,44.07
2018-02-21T09:21:09.968Z,42.87
2018-02-21T09:23:37.537Z,42.07
2018-02-21T09:26:05.249Z,42.80
2018-02-21T09:28:33.583Z,43.77
2018-02-21T09:31:01.162Z,42.30
2018-02-21T09:33:28.728Z,41.93
2018-02-21T09:35:56.330Z,42.10
2018-02-21T09:38:23.929Z,43.07
2018-02-21T09:40:51.440Z,44.33
2018-02-21T09:43:19.822Z,42.33
2018-02-21T09:45:48.602Z,43.47
2018-02-21T09:48:17.818Z,41.63
2018-02-21T09:50:45.913Z,41.20
2018-02-21T09:53:13.491Z,41.43
2018-02-21T09:55:41.036Z,41.23
2018-02-21T09:58:08.607Z,43.40
2018-02-21T10:00:36.137Z,43.00
2018-02-21T10:03:03.662Z,39.37
2018-02-21T10:05:31.991Z,40.13
2018-02-21T10:07:59.557Z,40.70
2018-02-21T10:10:27.108Z,40.53
2018-02-21T10:12:54.674Z,39.10
2018-02-21T10:15:22.202Z,39.23
2018-02-21T10:17:49.756Z,40.50
2018-02-21T10:20:18.102Z,41.73
2018-02-21T10:22:46.807Z,39.87
2018-02-21T10:25:14.337Z,38.93
2018-02-21T10:27:41.897Z,39.73
2018-02-21T10:30:10.182Z,40.77
2018-02-21T10:32:37.718Z,39.60
2018-02-21T10:35:05.274Z,37.73
2018-02-21T10:37:32.784Z,39.27
2018-02-21T10:40:00.306Z,35.53
2018-02-21T10:42:27.913Z,37.87
2018-02-21T10:44:55.457Z,37.53
2018-02-21T10:47:23.780Z,37.63
2018-02-21T10:49:52.085Z,39.30
2018-02-21T10:52:20.377Z,36.80
2018-02-21T10:54:47.901Z,39.70
2018-02-21T10:57:17.271Z,38.93
2018-02-21T10:59:44.789Z,39.47
2018-02-21T11:02:12.390Z,40.33
2018-02-21T11:04:39.914Z,38.30
2018-02-21T11:07:07.464Z,38.07
2018-02-21T11:09:34.983Z,37.03
2018-02-21T11:12:02.486Z,36.70
2018-02-21T11:14:30.035Z,38.13
2018-02-21T11:16:57.585Z,38.53
2018-02-21T11:19:25.093Z,37.50
2018-02-21T11:21:52.622Z,37.53
2018-02-21T11:24:20.161Z,37.03
2018-02-21T11:26:47.994Z,36.57
2018-02-21T11:29:16.369Z,38.03
2018-02-21T11:31:43.946Z,35.30
2018-02-21T11:34:11.493Z,35.40
2018-02-21T11:36:39.055Z,35.57
2018-02-21T11:39:07.330Z,36.73
2018-02-21T11:41:35.646Z,38.07
2018-02-21T11:44:03.175Z,41.10
2018-02-21T11:46:30.693Z,41.47
2018-02-21T11:48:58.213Z,39.60
2018-02-21T11:51:25.795Z,39.13
2018-02-21T11:53:53.306Z,41.27
2018-02-21T11:56:20.830Z,39.70
2018-02-21T11:58:48.341Z,40.67
2018-02-21T12:01:15.928Z,41.50
2018-02-21T12:03:43.438Z,43.33
2018-02-21T12:06:11.201Z,42.53
2018-02-21T12:08:38.743Z,42.20
2018-02-21T12:11:07.015Z,41.87
2018-02-21T12:13:34.560Z,41.77
2018-02-21T12:16:02.173Z,43.30
2018-02-21T12:18:30.421Z,43.33
2018-02-21T12:20:57.981Z,41.60
2018-02-21T12:23:25.504Z,40.73
2018-02-21T12:25:53.026Z,42.13
2018-02-21T12:28:20.529Z,44.30
2018-02-21T12:30:48.802Z,42.63
2018-02-21T12:33:16.388Z,42.67
2018-02-21T12:35:43.881Z,43.50
2018-02-21T12:38:11.402Z,41.43
2018-02-21T12:40:44.568Z,42.13
2018-02-21T12:43:12.858Z,41.60
2018-02-21T12:45:40.377Z,41.20
2018-02-21T12:48:07.882Z,40.13
2018-02-21T12:50:35.433Z,38.83
2018-02-21T12:53:02.959Z,39.20
2018-02-21T12:55:30.570Z,40.07
2018-02-21T12:57:58.110Z,36.97
2018-02-21T13:00:25.759Z,39.60
2018-02-21T13:02:54.037Z,39.33
2018-02-21T13:05:22.340Z,37.93
2018-02-21T13:07:50.083Z,38.07
2018-02-21T13:10:17.614Z,36.60
2018-02-21T13:12:45.966Z,38.97
2018-02-21T13:15:13.679Z,39.67
2018-02-21T13:17:41.222Z,37.60
2018-02-21T13:20:09.448Z,39.80
2018-02-21T13:22:36.952Z,38.57
2018-02-21T13:25:05.219Z,40.20
2018-02-21T13:27:33.514Z,40.17
2018-02-21T13:30:01.039Z,40.33
2018-02-21T13:32:28.563Z,37.40
2018-02-21T13:34:56.100Z,38.37
2018-02-21T13:37:23.629Z,39.37
2018-02-21T13:39:51.918Z,38.73
2018-02-21T13:42:19.439Z,38.20
2018-02-21T13:44:48.158Z,42.27
2018-02-21T13:47:16.722Z,43.17
2018-02-21T13:49:45.009Z,41.60
2018-02-21T13:52:13.356Z,43.43
2018-02-21T13:54:40.863Z,41.57
2018-02-21T13:57:08.366Z,41.27
2018-02-21T13:59:35.881Z,39.37
2018-02-21T14:02:04.151Z,40.20
2018-02-21T14:04:31.693Z,41.10
2018-02-21T14:06:59.259Z,41.67
2018-02-21T14:09:26.829Z,42.43
2018-02-21T14:11:54.338Z,41.30
2018-02-21T14:14:22.641Z,43.20
2018-02-21T14:16:50.171Z,41.90
2018-02-21T14:19:17.763Z,42.43
2018-02-21T14:21:45.953Z,43.70
2018-02-21T14:24:13.470Z,41.93
2018-02-21T14:26:41.777Z,42.53
2018-02-21T14:29:09.366Z,42.73
2018-02-21T14:31:36.850Z,41.03
2018-02-21T14:34:04.375Z,43.07
2018-02-21T14:36:31.868Z,43.20
2018-02-21T14:39:00.151Z,42.67
2018-02-21T14:41:28.451Z,42.40
2018-02-21T14:43:56.062Z,43.03
2018-02-21T14:46:24.366Z,41.80
2018-02-21T14:48:52.659Z,42.87
2018-02-21T14:51:20.200Z,44.03
2018-02-21T14:53:48.476Z,42.83
2018-02-21T14:56:17.008Z,42.43
2018-02-21T14:58:44.599Z,44.13
2018-02-21T15:01:12.147Z,42.63
2018-02-21T15:03:39.701Z,43.50
2018-02-21T15:06:07.994Z,41.30
2018-02-21T15:08:37.346Z,41.70
2018-02-21T15:11:04.906Z,44.07
2018-02-21T15:13:32.503Z,43.87
2018-02-21T15:16:00.052Z,40.57
2018-02-21T15:18:27.570Z,43.20
2018-02-21T15:20:55.111Z,41.40
2018-02-21T15:23:22.646Z,40.67
2018-02-21T15:25:50.140Z,43.50
2018-02-21T15:28:17.659Z,40.73
2018-02-21T15:30:45.939Z,38.63
2018-02-21T15:33:14.220Z,41.10
2018-02-21T15:35:41.757Z,40.60
2018-02-21T15:38:10.042Z,42.13
2018-02-21T15:40:38.330Z,41.47
2018-02-21T15:43:05.838Z,42.63
2018-02-21T15:45:33.398Z,42.47
2018-02-21T15:48:00.941Z,39.93
2018-02-21T15:50:28.450Z,41.63
2018-02-21T15:52:56.731Z,42.60
2018-02-21T15:55:24.255Z,42.83
2018-02-21T15:57:51.780Z,41.07
2018-02-21T16:00:19.282Z,41.53
2018-02-21T16:02:47.648Z,42.80
2018-02-21T16:05:15.200Z,42.20
2018-02-21T16:07:42.781Z,42.77
2018-02-21T16:10:11.102Z,43.17
2018-02-21T16:12:38.615Z,43.13
2018-02-21T16:15:06.899Z,42.73
2018-02-21T16:17:35.189Z,41.63
2018-02-21T16:20:02.697Z,41.23
2018-02-21T16:22:30.239Z,42.43
2018-02-21T16:24:57.779Z,41.90
2018-02-21T16:27:25.353Z,42.73
2018-02-21T16:29:52.899Z,42.67
2018-02-21T16:32:20.509Z,44.33
2018-02-21T16:34:47.997Z,43.43
2018-02-21T16:37:15.512Z,42.37
2018-02-21T16:39:43.037Z,46.03
2018-02-21T16:42:10.547Z,42.40
2018-02-21T16:44:38.835Z,44.10
2018-02-21T16:47:06.355Z,44.50
2018-02-21T16:49:34.650Z,44.23
2018-02-21T16:52:02.930Z,44.93
2018-02-21T16:54:30.456Z,43.17
2018-02-21T16:56:57.976Z,45.97
2018-02-21T16:59:25.530Z,45.90
2018-02-21T17:01:53.064Z,46.47
2018-02-21T17:04:20.582Z,44.97
2018-02-21T17:06:48.102Z,46.27
2018-02-21T17:09:15.618Z,47.10
2018-02-21T17:11:43.905Z,43.47
2018-02-21T17:14:12.219Z,46.30
2018-02-21T17:16:39.728Z,45.30
2018-02-21T17:19:08.023Z,45.07
2018-02-21T17:21:35.558Z,46.37
2018-02-21T17:24:03.874Z,47.00
2018-02-21T17:26:31.426Z,44.70
2018-02-21T17:28:58.963Z,47.27
2018-02-21T17:31:26.510Z,47.20
2018-02-21T17:33:54.067Z,47.70
2018-02-21T17:36:22.427Z,46.67
2018-02-21T17:38:49.982Z,47.67
2018-02-21T17:41:23.270Z,46.97
2018-02-21T17:43:50.823Z,44.13
2018-02-21T17:46:18.322Z,43.33
2018-02-21T17:48:46.770Z,46.37
2018-02-21T17:51:14.316Z,45.67
2018-02-21T17:53:41.832Z,46.43
2018-02-21T17:56:09.355Z,46.90
2018-02-21T17:58:36.891Z,48.53
2018-02-21T18:01:04.456Z,44.30
2018-02-21T18:03:31.987Z,43.40
2018-02-21T18:05:59.587Z,42.17
2018-02-21T18:08:27.925Z,45.30
2018-02-21T18:10:55.410Z,50.83
2018-02-21T18:13:23.004Z,48.83
2018-02-21T18:15:50.540Z,45.87
2018-02-21T18:18:18.106Z,43.33
2018-02-21T18:20:46.437Z,42.50
2018-02-21T18:23:13.952Z,41.73
2018-02-21T18:25:41.470Z,42.43
2018-02-21T18:28:09.030Z,41.93
2018-02-21T18:30:36.556Z,42.40
2018-02-21T18:33:04.137Z,43.70
2018-02-21T18:35:31.645Z,41.90
2018-02-21T18:37:59.182Z,44.70
2018-02-21T18:40:26.707Z,44.97
2018-02-21T18:42:54.226Z,47.07
2018-02-21T18:45:21.731Z,43.13
2018-02-21T18:47:49.303Z,50.20
2018-02-21T18:50:17.602Z,49.20
2018-02-21T18:52:45.110Z,43.30
2018-02-21T18:55:12.631Z,43.93
2018-02-21T18:57:40.151Z,45.27
2018-02-21T19:00:08.435Z,43.10
2018-02-21T19:02:36.729Z,43.83
2018-02-21T19:05:04.243Z,44.30
2018-02-21T19:07:31.763Z,44.87
2018-02-21T19:09:59.368Z,46.73
2018-02-21T19:12:26.930Z,46.43
2018-02-21T19:14:55.220Z,46.53
2018-02-21T19:17:22.731Z,49.00
2018-02-21T19:19:50.256Z,50.10
2018-02-21T19:22:18.552Z,47.53
2018-02-21T19:24:46.058Z,47.83
2018-02-21T19:27:13.597Z,47.60
2018-02-21T19:29:41.890Z,49.13
2018-02-21T19:32:10.198Z,48.30
2018-02-21T19:34:37.714Z,46.20
2018-02-21T19:37:06.002Z,47.30
2018-02-21T19:39:33.530Z,46.57
2018-02-21T19:42:01.048Z,46.17
2018-02-21T19:44:28.567Z,48.57
2018-02-21T19:46:56.902Z,48.17
2018-02-21T19:49:24.418Z,49.50
2018-02-21T19:51:51.946Z,47.20
2018-02-21T19:54:20.272Z,46.13
2018-02-21T19:56:47.810Z,47.47
2018-02-21T19:59:15.380Z,46.50
2018-02-21T20:01:42.894Z,45.47
2018-02-21T20:04:11.174Z,45.00
2018-02-21T20:06:39.455Z,46.13
2018-02-21T20:09:07.769Z,43.67
2018-02-21T20:11:35.312Z,45.70
2018-02-21T20:14:03.209Z,43.60
2018-02-21T20:16:31.154Z,44.90
2018-02-21T20:18:58.666Z,45.17
2018-02-21T20:21:27.006Z,44.97
2018-02-21T20:23:54.558Z,45.73
2018-02-21T20:26:22.077Z,44.83
2018-02-21T20:28:49.631Z,45.37
2018-02-21T20:31:17.193Z,47.70
2018-02-21T20:33:45.514Z,49.50
2018-02-21T20:36:13.048Z,51.80
2018-02-21T20:38:40.571Z,58.47
2018-02-21T20:41:08.887Z,58.00
2018-02-21T20:43:36.457Z,51.47
2018-02-21T20:46:03.998Z,46.57
2018-02-21T20:48:31.533Z,48.10
2018-02-21T20:50:59.845Z,47.90
2018-02-21T20:53:27.368Z,48.40
2018-02-21T20:55:54.901Z,44.03
2018-02-21T20:58:23.201Z,46.50
2018-02-21T21:00:50.759Z,44.83
2018-02-21T21:03:18.345Z,47.13
2018-02-21T21:05:45.860Z,45.23
2018-02-21T21:08:14.143Z,46.23
2018-02-21T21:10:41.682Z,45.50
2018-02-21T21:13:10.007Z,44.07
2018-02-21T21:15:37.549Z,47.03
2018-02-21T21:18:05.110Z,47.00
2018-02-21T21:20:32.627Z,46.00
2018-02-21T21:23:00.931Z,44.30
2018-02-21T21:25:28.471Z,44.43
2018-02-21T21:27:56.765Z,45.17
2018-02-21T21:30:25.052Z,48.27
2018-02-21T21:32:52.618Z,47.63
2018-02-21T21:35:20.198Z,47.20
2018-02-21T21:37:47.727Z,48.60
2018-02-21T21:40:15.242Z,47.43
2018-02-21T21:42:42.763Z,45.80
2018-02-21T21:45:10.296Z,46.70
2018-02-21T21:47:37.843Z,48.07
2018-02-21T21:50:05.411Z,46.63
2018-02-21T21:52:32.933Z,47.77
2018-02-21T21:55:00.579Z,46.63
2018-02-21T21:57:28.085Z,47.93
2018-02-21T21:59:55.618Z,46.80
2018-02-21T22:02:23.153Z,46.30
2018-02-21T22:04:50.727Z,44.10
2018-02-21T22:07:19.006Z,45.20
2018-02-21T22:09:47.294Z,44.07
2018-02-21T22:12:14.830Z,46.00
2018-02-21T22:14:43.112Z,43.93
2018-02-21T22:17:10.658Z,43.77
2018-02-21T22:19:38.213Z,44.10
2018-02-21T22:22:06.539Z,42.37
2018-02-21T22:24:34.066Z,42.60
2018-02-21T22:27:01.603Z,43.63
2018-02-21T22:29:29.101Z,44.40
2018-02-21T22:31:56.683Z,43.17
2018-02-21T22:34:24.195Z,44.27
2018-02-21T22:36:51.751Z,42.93
2018-02-21T22:39:20.041Z,42.20
2018-02-21T22:41:47.558Z,44.17
2018-02-21T22:44:15.074Z,43.53
2018-02-21T22:46:42.597Z,43.47
2018-02-21T22:49:10.209Z,43.70
2018-02-21T22:51:37.847Z,44.73
2018-02-21T22:54:05.410Z,44.40
2018-02-21T22:56:32.937Z,46.20
2018-02-21T22:59:00.489Z,45.73
2018-02-21T23:01:28.061Z,46.03
2018-02-21T23:03:55.570Z,46.47
2018-02-21T23:06:23.117Z,46.00
2018-02-21T23:08:50.657Z,44.70
2018-02-21T23:11:18.202Z,45.90
2018-02-21T23:13:45.737Z,44.57
2018-02-21T23:16:13.257Z,46.07
2018-02-21T23:18:40.800Z,45.87
2018-02-21T23:21:08.311Z,45.83
2018-02-21T23:23:35.854Z,45.93
2018-02-21T23:26:04.134Z,44.33
2018-02-21T23:28:31.679Z,46.07
2018-02-21T23:30:59.969Z,45.20
2018-02-21T23:33:27.481Z,45.07
2018-02-21T23:35:55.017Z,43.17
2018-02-21T23:38:22.537Z,44.90
2018-02-21T23:40:50.849Z,44.30
2018-02-21T23:43:18.369Z,45.33
2018-02-21T23:45:46.653Z,43.47
2018-02-21T23:48:14.199Z,42.77
2018-02-21T23:50:41.776Z,44.13
2018-02-21T23:53:09.329Z,42.57
2018-02-21T23:55:36.870Z,42.43
2018-02-21T23:58:04.391Z,42.13
